LIMJLIEE

Guest
Details From LIMJ - Genova-Sestri "Cristoforo Colombo"
To LIEE - Cagliari-Elmas "Mario Mameli"
Flight Number -
Tags decoded
Created
Modified
Stats Distance 313 nm / 579 km
Max Altitude 0 ft / 0 m
Waypoints 3
Social Downloads 2
Likes 0
Share

Download

Looking for another format? Having issues loading an existing format? Contact us
Advertisement - Login to hide

Notes

Requested: LIMJ D321L LIEE

Route

LIMJ D321L LIEE

ID Type Via Altitude (ft/m) Position (lat/lon) Dist (leg/tot) Name
O LIMJ APT - 0 / 0 44.41200 / 8.84187 - / 0 nm Genova-Sestri "Cristoforo Colombo"
D321L FIX - 0 / 0 39.40660 / 8.89522 300 / 300 nm
O LIEE APT - 0 / 0 39.25150 / 9.05430 11 / 312 nm Cagliari-Elmas "Mario Mameli"

Altitude Profile

Advertisement - Login to hide

Weather


0- 5 10 15 20 25 30 35+ Temperature / °C

Clouds and Precipitation
Forecast for 2020-07-09 06:00 UTC. Updated 5 hours ago

Ground ~20,000 ft ~40,000 ft Winds

LIMJ

Details ICAO LIMJ (GOA)
Name Genova-Sestri "Cristoforo Colombo"
Region Italy
Timezone Unknown
Stats Elevation 13 ft / 4 m (AMSL)
Location 44.412000° 8.841870°
Runways 1
Magnetic Variation 2.678° E

METAR

LIMJ 090750Z 18004KT CAVOK 24/19 Q1017

Decode

TAF

TAF LIMJ 090500Z 0906/1006 02008KT CAVOK BECMG 0909/0911 16010KT BECMG 0916/0918 VRB05KT

Decode

Departure Runways

ID Width Length Bearing (true/mag) Surface Threshold Overrun Markings Lighting
10 148 ft / 45 m 9,576 ft / 2,919 m 105.34° / 102.66° ASPHALT 0 ft / 0 m 197 ft / 60 m PREC-APP CENTERLINE EDGE THRESHOLD REIL-OMNI
28 148 ft / 45 m 9,576 ft / 2,919 m 285.37° / 282.69° ASPHALT 535 ft / 163 m 0 ft / 0 m PREC-APP CENTERLINE EDGE THRESHOLD SALS REIL-OMNI

LIEE

Details ICAO LIEE (CAG)
Name Cagliari-Elmas "Mario Mameli"
Region Italy
Timezone Europe/Rome (UTC+2.0)
Stats Elevation 13 ft / 4 m (AMSL)
Location 39.251500° 9.054300°
Runways 1
Magnetic Variation 2.558° E

METAR

LIEE 090750Z 18003KT 110V220 CAVOK 26/20 Q1017

Decode

TAF

TAF LIEE 090500Z 0906/1006 VRB05KT CAVOK BECMG 0910/0912 22012KT BECMG 0916/0918 VRB05KT

Decode

Destination Runways

ID Width Length Bearing (true/mag) Surface Threshold Overrun Markings Lighting
14 148 ft / 45 m 9,209 ft / 2,807 m 138.10° / 135.54° ASPHALT 0 ft / 0 m 0 ft / 0 m PREC-APP CENTERLINE EDGE THRESHOLD REIL-OMNI
32 148 ft / 45 m 9,209 ft / 2,807 m 318.11° / 315.55° ASPHALT 0 ft / 0 m 0 ft / 0 m PREC-APP CENTERLINE EDGE THRESHOLD ALSF-II REIL-OMNI

Approach Navaids

Runway Type Ident Frequency Range Bearing (true/mag) Slope Elevation
32 LOC-ILS IEL 109.50 MHz 18 nm / 33 km 318.10° / 315.54 ° - 13 ft / 4 m (AMSL)
32 OM OM - - 318.08° / 315.53 ° - 13 ft / 4 m (AMSL)
32 DME IEL 109.50 MHz 18 nm / 33 km - - 26 ft / 8 m (AMSL)
32 GS IEL 109.50 MHz 10 nm / 19 km 318.10° / 315.54 ° 3.00° 13 ft / 4 m (AMSL)
32 MM MM - - 318.08° / 315.53 ° - 13 ft / 4 m (AMSL)

Popular Alternatives